sensor_id;sensor_type;location;lat;lon;timestamp;temperature;humidity
11140;DHT22;5624;49.388;11.350;2024-02-28T00:00:27;2.90;99.90
11140;DHT22;5624;49.388;11.350;2024-02-28T00:02:53;3.00;99.90
11140;DHT22;5624;49.388;11.350;2024-02-28T00:05:19;3.00;99.90
11140;DHT22;5624;49.388;11.350;2024-02-28T00:07:44;3.10;99.90
11140;DHT22;5624;49.388;11.350;2024-02-28T00:10:11;3.10;99.90
11140;DHT22;5624;49.388;11.350;2024-02-28T00:12:37;3.10;99.90
11140;DHT22;5624;49.388;11.350;2024-02-28T00:15:05;3.10;99.90
11140;DHT22;5624;49.388;11.350;2024-02-28T00:17:30;3.10;99.90
11140;DHT22;5624;49.388;11.350;2024-02-28T00:19:56;3.20;99.90
11140;DHT22;5624;49.388;11.350;2024-02-28T00:22:21;3.20;99.90
11140;DHT22;5624;49.388;11.350;2024-02-28T00:24:47;3.20;99.90
11140;DHT22;5624;49.388;11.350;2024-02-28T00:27:13;3.30;99.90
11140;DHT22;5624;49.388;11.350;2024-02-28T00:29:40;3.20;99.90
11140;DHT22;5624;49.388;11.350;2024-02-28T00:32:05;3.30;99.90
11140;DHT22;5624;49.388;11.350;2024-02-28T00:34:31;3.20;99.90
11140;DHT22;5624;49.388;11.350;2024-02-28T00:36:56;3.20;99.90
11140;DHT22;5624;49.388;11.350;2024-02-28T00:39:22;3.20;99.90
11140;DHT22;5624;49.388;11.350;2024-02-28T00:41:48;3.20;99.90
11140;DHT22;5624;49.388;11.350;2024-02-28T00:44:14;3.20;99.90
11140;DHT22;5624;49.388;11.350;2024-02-28T00:46:39;3.20;99.90
11140;DHT22;5624;49.388;11.350;2024-02-28T00:49:05;3.20;99.90
11140;DHT22;5624;49.388;11.350;2024-02-28T00:51:30;3.20;99.90
11140;DHT22;5624;49.388;11.350;2024-02-28T00:53:56;3.20;99.90
11140;DHT22;5624;49.388;11.350;2024-02-28T00:56:21;3.20;99.90
11140;DHT22;5624;49.388;11.350;2024-02-28T00:58:47;3.20;99.90
11140;DHT22;5624;49.388;11.350;2024-02-28T01:01:13;3.20;99.90
11140;DHT22;5624;49.388;11.350;2024-02-28T01:03:38;3.20;99.90
11140;DHT22;5624;49.388;11.350;2024-02-28T01:06:04;3.10;99.90
11140;DHT22;5624;49.388;11.350;2024-02-28T01:08:30;3.10;99.90
11140;DHT22;5624;49.388;11.350;2024-02-28T01:10:55;3.10;99.90
11140;DHT22;5624;49.388;11.350;2024-02-28T01:13:21;3.10;99.90
11140;DHT22;5624;49.388;11.350;2024-02-28T01:15:46;3.10;99.90
11140;DHT22;5624;49.388;11.350;2024-02-28T01:18:12;3.20;99.90
11140;DHT22;5624;49.388;11.350;2024-02-28T01:20:38;3.20;99.90
11140;DHT22;5624;49.388;11.350;2024-02-28T01:23:03;3.20;99.90
11140;DHT22;5624;49.388;11.350;2024-02-28T01:25:29;3.20;99.90
11140;DHT22;5624;49.388;11.350;2024-02-28T01:27:56;3.20;99.90
11140;DHT22;5624;49.388;11.350;2024-02-28T01:30:22;3.10;99.90
11140;DHT22;5624;49.388;11.350;2024-02-28T01:32:47;3.20;99.90
11140;DHT22;5624;49.388;11.350;2024-02-28T01:35:13;3.10;99.90
11140;DHT22;5624;49.388;11.350;2024-02-28T01:37:38;3.10;99.90
11140;DHT22;5624;49.388;11.350;2024-02-28T01:40:04;3.20;99.90
11140;DHT22;5624;49.388;11.350;2024-02-28T01:42:30;3.20;99.90
11140;DHT22;5624;49.388;11.350;2024-02-28T01:44:55;3.20;99.90
11140;DHT22;5624;49.388;11.350;2024-02-28T01:47:21;3.20;99.90
11140;DHT22;5624;49.388;11.350;2024-02-28T01:49:47;3.20;99.90
11140;DHT22;5624;49.388;11.350;2024-02-28T01:52:13;3.20;99.90
11140;DHT22;5624;49.388;11.350;2024-02-28T01:54:39;3.20;99.90
11140;DHT22;5624;49.388;11.350;2024-02-28T01:57:05;3.20;99.90
11140;DHT22;5624;49.388;11.350;2024-02-28T01:59:32;3.20;99.90
11140;DHT22;5624;49.388;11.350;2024-02-28T02:01:58;3.20;99.90
11140;DHT22;5624;49.388;11.350;2024-02-28T02:04:24;3.10;99.90
11140;DHT22;5624;49.388;11.350;2024-02-28T02:06:50;3.10;99.90
11140;DHT22;5624;49.388;11.350;2024-02-28T02:09:19;3.10;99.90
11140;DHT22;5624;49.388;11.350;2024-02-28T02:11:45;3.10;99.90
11140;DHT22;5624;49.388;11.350;2024-02-28T02:14:10;3.00;99.90
11140;DHT22;5624;49.388;11.350;2024-02-28T02:16:36;3.00;99.90
11140;DHT22;5624;49.388;11.350;2024-02-28T02:19:02;2.90;99.90
11140;DHT22;5624;49.388;11.350;2024-02-28T02:21:31;2.90;99.90
11140;DHT22;5624;49.388;11.350;2024-02-28T02:23:59;2.90;99.90
11140;DHT22;5624;49.388;11.350;2024-02-28T02:26:25;2.90;99.90
11140;DHT22;5624;49.388;11.350;2024-02-28T02:28:50;2.90;99.90
11140;DHT22;5624;49.388;11.350;2024-02-28T02:31:16;3.00;99.90
11140;DHT22;5624;49.388;11.350;2024-02-28T02:33:41;3.00;99.90
11140;DHT22;5624;49.388;11.350;2024-02-28T02:36:07;3.00;99.90
11140;DHT22;5624;49.388;11.350;2024-02-28T02:38:32;3.10;99.90
11140;DHT22;5624;49.388;11.350;2024-02-28T02:40:58;3.00;99.90
11140;DHT22;5624;49.388;11.350;2024-02-28T02:43:23;3.00;99.90
11140;DHT22;5624;49.388;11.350;2024-02-28T02:45:49;3.00;99.90
11140;DHT22;5624;49.388;11.350;2024-02-28T02:48:14;3.00;99.90
11140;DHT22;5624;49.388;11.350;2024-02-28T02:50:40;3.00;99.90
11140;DHT22;5624;49.388;11.350;2024-02-28T02:53:08;2.90;99.90
11140;DHT22;5624;49.388;11.350;2024-02-28T02:55:34;2.90;99.90
11140;DHT22;5624;49.388;11.350;2024-02-28T02:58:00;2.90;99.90
11140;DHT22;5624;49.388;11.350;2024-02-28T03:00:26;2.90;99.90
11140;DHT22;5624;49.388;11.350;2024-02-28T03:02:51;2.80;99.90
11140;DHT22;5624;49.388;11.350;2024-02-28T03:05:17;2.80;99.90
11140;DHT22;5624;49.388;11.350;2024-02-28T03:07:42;2.80;99.90
11140;DHT22;5624;49.388;11.350;2024-02-28T03:10:08;2.80;99.90
11140;DHT22;5624;49.388;11.350;2024-02-28T03:12:35;2.90;99.90
11140;DHT22;5624;49.388;11.350;2024-02-28T03:15:01;2.90;99.90
11140;DHT22;5624;49.388;11.350;2024-02-28T03:17:28;3.00;99.90
11140;DHT22;5624;49.388;11.350;2024-02-28T03:19:54;3.00;99.90
11140;DHT22;5624;49.388;11.350;2024-02-28T03:22:19;3.00;99.90
11140;DHT22;5624;49.388;11.350;2024-02-28T03:24:45;3.10;99.90
11140;DHT22;5624;49.388;11.350;2024-02-28T03:27:10;3.10;99.90
11140;DHT22;5624;49.388;11.350;2024-02-28T03:29:36;3.10;99.90
11140;DHT22;5624;49.388;11.350;2024-02-28T03:32:01;3.10;99.90
11140;DHT22;5624;49.388;11.350;2024-02-28T03:34:27;3.10;99.90
11140;DHT22;5624;49.388;11.350;2024-02-28T03:36:52;3.20;99.90
11140;DHT22;5624;49.388;11.350;2024-02-28T03:39:18;3.20;99.90
11140;DHT22;5624;49.388;11.350;2024-02-28T03:41:43;3.20;99.90
11140;DHT22;5624;49.388;11.350;2024-02-28T03:44:09;3.10;99.90
11140;DHT22;5624;49.388;11.350;2024-02-28T03:46:35;3.20;99.90
11140;DHT22;5624;49.388;11.350;2024-02-28T03:49:00;3.20;99.90
11140;DHT22;5624;49.388;11.350;2024-02-28T03:51:26;3.20;99.90
11140;DHT22;5624;49.388;11.350;2024-02-28T03:53:51;3.20;99.90
11140;DHT22;5624;49.388;11.350;2024-02-28T03:56:26;3.20;99.90
11140;DHT22;5624;49.388;11.350;2024-02-28T03:58:52;3.30;99.90
11140;DHT22;5624;49.388;11.350;2024-02-28T04:01:18;3.20;99.90
11140;DHT22;5624;49.388;11.350;2024-02-28T04:03:44;3.20;99.90
11140;DHT22;5624;49.388;11.350;2024-02-28T04:06:10;3.20;99.90
11140;DHT22;5624;49.388;11.350;2024-02-28T04:08:36;3.20;99.90
11140;DHT22;5624;49.388;11.350;2024-02-28T04:11:02;3.20;99.90
11140;DHT22;5624;49.388;11.350;2024-02-28T04:13:27;3.20;99.90
11140;DHT22;5624;49.388;11.350;2024-02-28T04:15:53;3.20;99.90
11140;DHT22;5624;49.388;11.350;2024-02-28T04:18:19;3.30;99.90
11140;DHT22;5624;49.388;11.350;2024-02-28T04:20:44;3.20;99.90
11140;DHT22;5624;49.388;11.350;2024-02-28T04:23:10;3.20;99.90
11140;DHT22;5624;49.388;11.350;2024-02-28T04:25:35;3.20;99.90
11140;DHT22;5624;49.388;11.350;2024-02-28T04:28:02;3.10;99.90
11140;DHT22;5624;49.388;11.350;2024-02-28T04:30:27;3.20;99.90
11140;DHT22;5624;49.388;11.350;2024-02-28T04:32:53;3.10;99.90
11140;DHT22;5624;49.388;11.350;2024-02-28T04:35:19;3.20;99.90
11140;DHT22;5624;49.388;11.350;2024-02-28T04:37:45;3.20;99.90
11140;DHT22;5624;49.388;11.350;2024-02-28T04:40:11;3.20;99.90
11140;DHT22;5624;49.388;11.350;2024-02-28T04:42:37;3.10;99.90
11140;DHT22;5624;49.388;11.350;2024-02-28T04:45:03;3.10;99.90
11140;DHT22;5624;49.388;11.350;2024-02-28T04:47:29;3.10;99.90
11140;DHT22;5624;49.388;11.350;2024-02-28T04:49:56;3.10;99.90
11140;DHT22;5624;49.388;11.350;2024-02-28T04:52:21;3.10;99.90
11140;DHT22;5624;49.388;11.350;2024-02-28T04:54:47;3.20;99.90
11140;DHT22;5624;49.388;11.350;2024-02-28T04:57:13;3.10;99.90
11140;DHT22;5624;49.388;11.350;2024-02-28T04:59:38;3.20;99.90
11140;DHT22;5624;49.388;11.350;2024-02-28T05:02:03;3.10;99.90
11140;DHT22;5624;49.388;11.350;2024-02-28T05:04:29;3.20;99.90
11140;DHT22;5624;49.388;11.350;2024-02-28T05:06:54;3.10;99.90
11140;DHT22;5624;49.388;11.350;2024-02-28T05:09:20;3.10;99.90
11140;DHT22;5624;49.388;11.350;2024-02-28T05:11:46;3.10;99.90
11140;DHT22;5624;49.388;11.350;2024-02-28T05:14:11;3.00;99.90
11140;DHT22;5624;49.388;11.350;2024-02-28T05:16:37;3.00;99.90
11140;DHT22;5624;49.388;11.350;2024-02-28T05:19:02;3.10;99.90
11140;DHT22;5624;49.388;11.350;2024-02-28T05:21:29;3.00;99.90
11140;DHT22;5624;49.388;11.350;2024-02-28T05:23:55;3.00;99.90
11140;DHT22;5624;49.388;11.350;2024-02-28T05:26:20;3.00;99.90
11140;DHT22;5624;49.388;11.350;2024-02-28T05:28:46;3.10;99.90
11140;DHT22;5624;49.388;11.350;2024-02-28T05:31:25;3.10;99.90
11140;DHT22;5624;49.388;11.350;2024-02-28T05:33:56;3.10;99.90
11140;DHT22;5624;49.388;11.350;2024-02-28T05:36:22;3.10;99.90
11140;DHT22;5624;49.388;11.350;2024-02-28T05:38:48;3.10;99.90
11140;DHT22;5624;49.388;11.350;2024-02-28T05:41:14;3.10;99.90
11140;DHT22;5624;49.388;11.350;2024-02-28T05:43:40;3.10;99.90
11140;DHT22;5624;49.388;11.350;2024-02-28T05:46:06;3.10;99.90
11140;DHT22;5624;49.388;11.350;2024-02-28T05:48:32;3.00;99.90
11140;DHT22;5624;49.388;11.350;2024-02-28T05:50:57;3.00;99.90
11140;DHT22;5624;49.388;11.350;2024-02-28T05:53:23;3.10;99.90
11140;DHT22;5624;49.388;11.350;2024-02-28T05:55:52;3.00;99.90
11140;DHT22;5624;49.388;11.350;2024-02-28T05:58:19;3.00;99.90
11140;DHT22;5624;49.388;11.350;2024-02-28T06:00:44;3.00;99.90
11140;DHT22;5624;49.388;11.350;2024-02-28T06:03:10;3.10;99.90
11140;DHT22;5624;49.388;11.350;2024-02-28T06:05:35;3.10;99.90
11140;DHT22;5624;49.388;11.350;2024-02-28T06:08:01;3.10;99.90
11140;DHT22;5624;49.388;11.350;2024-02-28T06:10:26;3.10;99.90
11140;DHT22;5624;49.388;11.350;2024-02-28T06:12:52;3.10;99.90
11140;DHT22;5624;49.388;11.350;2024-02-28T06:15:18;3.20;99.90
11140;DHT22;5624;49.388;11.350;2024-02-28T06:17:44;3.20;99.90
11140;DHT22;5624;49.388;11.350;2024-02-28T06:20:09;3.30;99.90
11140;DHT22;5624;49.388;11.350;2024-02-28T06:22:35;3.40;99.90
11140;DHT22;5624;49.388;11.350;2024-02-28T06:25:00;3.30;99.90
11140;DHT22;5624;49.388;11.350;2024-02-28T06:27:26;3.30;99.90
11140;DHT22;5624;49.388;11.350;2024-02-28T06:29:52;3.40;99.90
11140;DHT22;5624;49.388;11.350;2024-02-28T06:32:18;3.30;99.90
11140;DHT22;5624;49.388;11.350;2024-02-28T06:34:43;3.40;99.90
11140;DHT22;5624;49.388;11.350;2024-02-28T06:37:09;3.40;99.90
11140;DHT22;5624;49.388;11.350;2024-02-28T06:39:34;3.40;99.90
11140;DHT22;5624;49.388;11.350;2024-02-28T06:42:00;3.40;99.90
11140;DHT22;5624;49.388;11.350;2024-02-28T06:44:25;3.40;99.90
11140;DHT22;5624;49.388;11.350;2024-02-28T06:46:51;3.50;99.90
11140;DHT22;5624;49.388;11.350;2024-02-28T06:49:16;3.50;99.90
11140;DHT22;5624;49.388;11.350;2024-02-28T06:51:44;3.50;99.90
11140;DHT22;5624;49.388;11.350;2024-02-28T06:54:09;3.50;99.90
11140;DHT22;5624;49.388;11.350;2024-02-28T06:56:35;3.50;99.90
11140;DHT22;5624;49.388;11.350;2024-02-28T06:59:01;3.60;99.90
11140;DHT22;5624;49.388;11.350;2024-02-28T07:01:27;3.70;99.90
11140;DHT22;5624;49.388;11.350;2024-02-28T07:03:52;3.70;99.90
11140;DHT22;5624;49.388;11.350;2024-02-28T07:06:18;3.70;99.90
11140;DHT22;5624;49.388;11.350;2024-02-28T07:08:44;3.70;99.90
11140;DHT22;5624;49.388;11.350;2024-02-28T07:11:15;3.70;99.90
11140;DHT22;5624;49.388;11.350;2024-02-28T07:13:41;3.80;99.90
11140;DHT22;5624;49.388;11.350;2024-02-28T07:16:07;3.80;99.90
11140;DHT22;5624;49.388;11.350;2024-02-28T07:18:33;3.70;99.90
11140;DHT22;5624;49.388;11.350;2024-02-28T07:20:59;3.80;99.90
11140;DHT22;5624;49.388;11.350;2024-02-28T07:23:25;3.70;99.90
11140;DHT22;5624;49.388;11.350;2024-02-28T07:25:50;3.80;99.90
11140;DHT22;5624;49.388;11.350;2024-02-28T07:28:16;3.90;99.90
11140;DHT22;5624;49.388;11.350;2024-02-28T07:30:42;3.90;99.90
11140;DHT22;5624;49.388;11.350;2024-02-28T07:33:09;3.90;99.90
11140;DHT22;5624;49.388;11.350;2024-02-28T07:35:47;3.90;99.90
11140;DHT22;5624;49.388;11.350;2024-02-28T07:38:13;4.00;99.90
11140;DHT22;5624;49.388;11.350;2024-02-28T07:40:38;4.00;99.90
11140;DHT22;5624;49.388;11.350;2024-02-28T07:43:04;4.10;99.90
11140;DHT22;5624;49.388;11.350;2024-02-28T07:45:29;4.10;99.90
11140;DHT22;5624;49.388;11.350;2024-02-28T07:47:55;4.10;99.90
11140;DHT22;5624;49.388;11.350;2024-02-28T07:50:20;4.20;99.90
11140;DHT22;5624;49.388;11.350;2024-02-28T07:52:46;4.20;99.90
11140;DHT22;5624;49.388;11.350;2024-02-28T07:55:11;4.10;99.90
11140;DHT22;5624;49.388;11.350;2024-02-28T07:57:37;4.20;99.90
11140;DHT22;5624;49.388;11.350;2024-02-28T08:00:03;4.20;99.90
11140;DHT22;5624;49.388;11.350;2024-02-28T08:02:29;4.30;99.90
11140;DHT22;5624;49.388;11.350;2024-02-28T08:04:54;4.30;99.90
11140;DHT22;5624;49.388;11.350;2024-02-28T08:07:20;4.30;99.90
11140;DHT22;5624;49.388;11.350;2024-02-28T08:09:45;4.40;99.90
11140;DHT22;5624;49.388;11.350;2024-02-28T08:12:11;4.50;99.90
11140;DHT22;5624;49.388;11.350;2024-02-28T08:14:37;4.60;99.90
11140;DHT22;5624;49.388;11.350;2024-02-28T08:17:02;4.70;99.90
11140;DHT22;5624;49.388;11.350;2024-02-28T08:19:28;4.70;99.90
11140;DHT22;5624;49.388;11.350;2024-02-28T08:21:53;4.70;99.90
11140;DHT22;5624;49.388;11.350;2024-02-28T08:24:19;4.70;99.90
11140;DHT22;5624;49.388;11.350;2024-02-28T08:26:47;4.90;99.90
11140;DHT22;5624;49.388;11.350;2024-02-28T08:29:13;4.90;99.90
11140;DHT22;5624;49.388;11.350;2024-02-28T08:31:43;4.90;99.90
11140;DHT22;5624;49.388;11.350;2024-02-28T08:34:09;4.90;99.90
11140;DHT22;5624;49.388;11.350;2024-02-28T08:36:35;5.00;99.90
11140;DHT22;5624;49.388;11.350;2024-02-28T08:39:01;5.00;99.90
11140;DHT22;5624;49.388;11.350;2024-02-28T08:41:26;5.00;99.90
11140;DHT22;5624;49.388;11.350;2024-02-28T08:43:52;5.10;99.90
11140;DHT22;5624;49.388;11.350;2024-02-28T08:46:17;5.10;99.90
11140;DHT22;5624;49.388;11.350;2024-02-28T08:48:43;5.10;99.00
11140;DHT22;5624;49.388;11.350;2024-02-28T08:51:09;5.10;99.80
11140;DHT22;5624;49.388;11.350;2024-02-28T08:53:34;5.10;99.90
11140;DHT22;5624;49.388;11.350;2024-02-28T08:56:00;5.10;99.90
11140;DHT22;5624;49.388;11.350;2024-02-28T08:58:25;5.20;99.60
11140;DHT22;5624;49.388;11.350;2024-02-28T09:00:51;5.30;99.40
11140;DHT22;5624;49.388;11.350;2024-02-28T09:03:17;5.30;98.90
11140;DHT22;5624;49.388;11.350;2024-02-28T09:05:42;5.30;97.90
11140;DHT22;5624;49.388;11.350;2024-02-28T09:08:08;5.20;99.00
11140;DHT22;5624;49.388;11.350;2024-02-28T09:10:34;5.30;98.60
11140;DHT22;5624;49.388;11.350;2024-02-28T09:13:00;5.20;98.80
11140;DHT22;5624;49.388;11.350;2024-02-28T09:15:25;5.30;98.70
11140;DHT22;5624;49.388;11.350;2024-02-28T09:17:51;5.30;98.60
11140;DHT22;5624;49.388;11.350;2024-02-28T09:20:17;5.40;99.10
11140;DHT22;5624;49.388;11.350;2024-02-28T09:22:42;5.40;98.80
11140;DHT22;5624;49.388;11.350;2024-02-28T09:25:08;5.40;99.20
11140;DHT22;5624;49.388;11.350;2024-02-28T09:27:35;5.30;98.90
11140;DHT22;5624;49.388;11.350;2024-02-28T09:30:01;5.40;98.90
11140;DHT22;5624;49.388;11.350;2024-02-28T09:32:27;5.30;98.50
11140;DHT22;5624;49.388;11.350;2024-02-28T09:34:53;5.40;98.60
11140;DHT22;5624;49.388;11.350;2024-02-28T09:37:18;5.40;99.30
11140;DHT22;5624;49.388;11.350;2024-02-28T09:39:46;5.50;98.90
11140;DHT22;5624;49.388;11.350;2024-02-28T09:42:11;5.40;98.40
11140;DHT22;5624;49.388;11.350;2024-02-28T09:44:39;5.40;98.00
11140;DHT22;5624;49.388;11.350;2024-02-28T09:47:05;5.40;98.30
11140;DHT22;5624;49.388;11.350;2024-02-28T09:49:31;5.50;99.20
11140;DHT22;5624;49.388;11.350;2024-02-28T09:51:58;5.40;98.10
11140;DHT22;5624;49.388;11.350;2024-02-28T09:54:24;5.50;97.80
11140;DHT22;5624;49.388;11.350;2024-02-28T09:56:51;5.40;97.90
11140;DHT22;5624;49.388;11.350;2024-02-28T09:59:18;5.40;98.30
11140;DHT22;5624;49.388;11.350;2024-02-28T10:01:48;5.40;98.00
11140;DHT22;5624;49.388;11.350;2024-02-28T10:04:17;5.30;98.00
11140;DHT22;5624;49.388;11.350;2024-02-28T10:06:43;5.30;98.60
11140;DHT22;5624;49.388;11.350;2024-02-28T10:09:08;5.30;98.80
11140;DHT22;5624;49.388;11.350;2024-02-28T10:11:35;5.20;99.10
11140;DHT22;5624;49.388;11.350;2024-02-28T10:14:01;5.20;99.90
11140;DHT22;5624;49.388;11.350;2024-02-28T10:16:27;5.20;99.40
11140;DHT22;5624;49.388;11.350;2024-02-28T10:18:53;5.20;98.80
11140;DHT22;5624;49.388;11.350;2024-02-28T10:21:19;5.20;99.10
11140;DHT22;5624;49.388;11.350;2024-02-28T10:23:45;5.20;99.60
11140;DHT22;5624;49.388;11.350;2024-02-28T10:26:11;5.40;99.90
11140;DHT22;5624;49.388;11.350;2024-02-28T10:28:38;5.60;98.80
11140;DHT22;5624;49.388;11.350;2024-02-28T10:31:05;5.70;97.80
11140;DHT22;5624;49.388;11.350;2024-02-28T10:33:32;5.70;96.90
11140;DHT22;5624;49.388;11.350;2024-02-28T10:35:58;5.80;96.30
11140;DHT22;5624;49.388;11.350;2024-02-28T10:38:26;5.90;96.30
11140;DHT22;5624;49.388;11.350;2024-02-28T10:40:53;5.80;95.50
11140;DHT22;5624;49.388;11.350;2024-02-28T10:43:19;5.80;95.20
11140;DHT22;5624;49.388;11.350;2024-02-28T10:45:45;5.90;94.40
11140;DHT22;5624;49.388;11.350;2024-02-28T10:48:14;5.70;94.90
11140;DHT22;5624;49.388;11.350;2024-02-28T10:50:41;5.70;95.50
11140;DHT22;5624;49.388;11.350;2024-02-28T10:53:14;5.70;95.60
11140;DHT22;5624;49.388;11.350;2024-02-28T10:55:42;5.60;95.20
11140;DHT22;5624;49.388;11.350;2024-02-28T10:58:10;5.70;96.70
11140;DHT22;5624;49.388;11.350;2024-02-28T11:00:37;5.80;95.60
11140;DHT22;5624;49.388;11.350;2024-02-28T11:03:05;5.90;94.70
11140;DHT22;5624;49.388;11.350;2024-02-28T11:05:38;6.10;95.40
11140;DHT22;5624;49.388;11.350;2024-02-28T11:08:26;6.20;93.60
11140;DHT22;5624;49.388;11.350;2024-02-28T11:11:03;6.40;91.90
11140;DHT22;5624;49.388;11.350;2024-02-28T11:13:30;6.50;91.60
11140;DHT22;5624;49.388;11.350;2024-02-28T11:16:07;6.60;91.60
11140;DHT22;5624;49.388;11.350;2024-02-28T11:18:33;6.50;90.60
11140;DHT22;5624;49.388;11.350;2024-02-28T11:20:58;6.50;90.20
11140;DHT22;5624;49.388;11.350;2024-02-28T11:23:24;6.40;91.70
11140;DHT22;5624;49.388;11.350;2024-02-28T11:25:50;6.50;90.30
11140;DHT22;5624;49.388;11.350;2024-02-28T11:28:15;6.50;88.80
11140;DHT22;5624;49.388;11.350;2024-02-28T11:30:41;6.40;90.20
11140;DHT22;5624;49.388;11.350;2024-02-28T11:33:07;6.50;89.30
11140;DHT22;5624;49.388;11.350;2024-02-28T11:35:34;6.50;89.60
11140;DHT22;5624;49.388;11.350;2024-02-28T11:38:00;6.40;89.80
11140;DHT22;5624;49.388;11.350;2024-02-28T11:40:26;6.40;89.80
11140;DHT22;5624;49.388;11.350;2024-02-28T11:42:52;6.30;89.70
11140;DHT22;5624;49.388;11.350;2024-02-28T11:45:18;6.40;90.40
11140;DHT22;5624;49.388;11.350;2024-02-28T11:47:44;6.40;90.50
11140;DHT22;5624;49.388;11.350;2024-02-28T11:50:10;6.50;90.40
11140;DHT22;5624;49.388;11.350;2024-02-28T11:52:35;6.40;89.70
11140;DHT22;5624;49.388;11.350;2024-02-28T11:55:01;6.40;90.00
11140;DHT22;5624;49.388;11.350;2024-02-28T11:57:27;6.40;90.80
11140;DHT22;5624;49.388;11.350;2024-02-28T11:59:54;6.40;90.30
11140;DHT22;5624;49.388;11.350;2024-02-28T12:02:23;6.50;90.70
11140;DHT22;5624;49.388;11.350;2024-02-28T12:04:52;6.50;90.10
11140;DHT22;5624;49.388;11.350;2024-02-28T12:07:19;6.60;89.80
11140;DHT22;5624;49.388;11.350;2024-02-28T12:09:46;6.50;89.80
11140;DHT22;5624;49.388;11.350;2024-02-28T12:12:13;6.50;88.90
11140;DHT22;5624;49.388;11.350;2024-02-28T12:14:39;6.50;89.30
11140;DHT22;5624;49.388;11.350;2024-02-28T12:17:05;6.30;89.30
11140;DHT22;5624;49.388;11.350;2024-02-28T12:19:31;6.30;89.30
11140;DHT22;5624;49.388;11.350;2024-02-28T12:21:56;6.30;89.60
11140;DHT22;5624;49.388;11.350;2024-02-28T12:24:24;6.40;90.20
11140;DHT22;5624;49.388;11.350;2024-02-28T12:26:49;6.40;89.90
11140;DHT22;5624;49.388;11.350;2024-02-28T12:29:15;6.40;89.80
11140;DHT22;5624;49.388;11.350;2024-02-28T12:31:40;6.40;90.10
11140;DHT22;5624;49.388;11.350;2024-02-28T12:34:06;6.50;89.00
11140;DHT22;5624;49.388;11.350;2024-02-28T12:36:31;6.50;89.30
11140;DHT22;5624;49.388;11.350;2024-02-28T12:38:58;6.60;89.90
11140;DHT22;5624;49.388;11.350;2024-02-28T12:41:25;6.60;88.60
11140;DHT22;5624;49.388;11.350;2024-02-28T12:43:51;6.60;89.10
11140;DHT22;5624;49.388;11.350;2024-02-28T12:46:16;6.70;88.60
11140;DHT22;5624;49.388;11.350;2024-02-28T12:48:42;6.60;88.90
11140;DHT22;5624;49.388;11.350;2024-02-28T12:51:11;6.50;89.80
11140;DHT22;5624;49.388;11.350;2024-02-28T12:53:38;6.60;90.20
11140;DHT22;5624;49.388;11.350;2024-02-28T12:56:04;6.60;90.30
11140;DHT22;5624;49.388;11.350;2024-02-28T12:58:29;6.50;89.30
11140;DHT22;5624;49.388;11.350;2024-02-28T13:00:55;6.40;90.60
11140;DHT22;5624;49.388;11.350;2024-02-28T13:03:21;6.50;90.30
11140;DHT22;5624;49.388;11.350;2024-02-28T13:05:46;6.50;90.10
11140;DHT22;5624;49.388;11.350;2024-02-28T13:08:12;6.60;90.40
11140;DHT22;5624;49.388;11.350;2024-02-28T13:10:37;6.70;89.50
11140;DHT22;5624;49.388;11.350;2024-02-28T13:13:06;6.80;89.20
11140;DHT22;5624;49.388;11.350;2024-02-28T13:15:32;6.80;88.90
11140;DHT22;5624;49.388;11.350;2024-02-28T13:17:58;6.80;88.80
11140;DHT22;5624;49.388;11.350;2024-02-28T13:20:23;6.80;88.20
11140;DHT22;5624;49.388;11.350;2024-02-28T13:22:50;6.80;88.20
11140;DHT22;5624;49.388;11.350;2024-02-28T13:25:16;6.80;88.00
11140;DHT22;5624;49.388;11.350;2024-02-28T13:27:43;6.80;87.80
11140;DHT22;5624;49.388;11.350;2024-02-28T13:30:09;6.70;88.40
11140;DHT22;5624;49.388;11.350;2024-02-28T13:32:35;6.80;89.00
11140;DHT22;5624;49.388;11.350;2024-02-28T13:35:00;6.90;88.10
11140;DHT22;5624;49.388;11.350;2024-02-28T13:37:26;6.90;88.40
11140;DHT22;5624;49.388;11.350;2024-02-28T13:39:52;7.00;87.20
11140;DHT22;5624;49.388;11.350;2024-02-28T13:42:17;7.00;86.30
11140;DHT22;5624;49.388;11.350;2024-02-28T13:44:46;7.00;86.20
11140;DHT22;5624;49.388;11.350;2024-02-28T13:47:12;7.00;86.90
11140;DHT22;5624;49.388;11.350;2024-02-28T13:49:39;6.90;87.20
11140;DHT22;5624;49.388;11.350;2024-02-28T13:52:04;6.70;87.00
11140;DHT22;5624;49.388;11.350;2024-02-28T13:54:30;6.70;87.40
11140;DHT22;5624;49.388;11.350;2024-02-28T13:56:56;6.70;87.90
11140;DHT22;5624;49.388;11.350;2024-02-28T13:59:22;6.70;89.00
11140;DHT22;5624;49.388;11.350;2024-02-28T14:01:47;6.70;88.00
11140;DHT22;5624;49.388;11.350;2024-02-28T14:04:13;6.70;87.80
11140;DHT22;5624;49.388;11.350;2024-02-28T14:06:38;6.80;87.70
11140;DHT22;5624;49.388;11.350;2024-02-28T14:09:04;6.80;88.10
11140;DHT22;5624;49.388;11.350;2024-02-28T14:11:30;6.80;88.60
11140;DHT22;5624;49.388;11.350;2024-02-28T14:13:55;6.80;88.20
11140;DHT22;5624;49.388;11.350;2024-02-28T14:16:21;6.80;87.60
11140;DHT22;5624;49.388;11.350;2024-02-28T14:18:47;6.90;88.60
11140;DHT22;5624;49.388;11.350;2024-02-28T14:21:12;6.90;88.30
11140;DHT22;5624;49.388;11.350;2024-02-28T14:23:39;7.00;87.50
11140;DHT22;5624;49.388;11.350;2024-02-28T14:26:04;7.10;85.90
11140;DHT22;5624;49.388;11.350;2024-02-28T14:28:30;7.20;84.30
11140;DHT22;5624;49.388;11.350;2024-02-28T14:30:55;7.10;85.80
11140;DHT22;5624;49.388;11.350;2024-02-28T14:33:21;7.00;86.30
11140;DHT22;5624;49.388;11.350;2024-02-28T14:35:47;7.20;85.80
11140;DHT22;5624;49.388;11.350;2024-02-28T14:38:12;7.30;83.10
11140;DHT22;5624;49.388;11.350;2024-02-28T14:40:38;7.40;84.30
11140;DHT22;5624;49.388;11.350;2024-02-28T14:43:04;7.50;82.50
11140;DHT22;5624;49.388;11.350;2024-02-28T14:45:30;7.40;83.00
11140;DHT22;5624;49.388;11.350;2024-02-28T14:47:57;7.40;83.00
11140;DHT22;5624;49.388;11.350;2024-02-28T14:50:23;7.40;81.50
11140;DHT22;5624;49.388;11.350;2024-02-28T14:52:48;7.50;81.60
11140;DHT22;5624;49.388;11.350;2024-02-28T14:55:14;7.30;83.00
11140;DHT22;5624;49.388;11.350;2024-02-28T14:57:40;7.20;84.00
11140;DHT22;5624;49.388;11.350;2024-02-28T15:00:09;7.30;84.00
11140;DHT22;5624;49.388;11.350;2024-02-28T15:02:39;7.30;84.50
11140;DHT22;5624;49.388;11.350;2024-02-28T15:05:05;7.20;83.80
11140;DHT22;5624;49.388;11.350;2024-02-28T15:07:32;7.10;83.50
11140;DHT22;5624;49.388;11.350;2024-02-28T15:09:58;6.80;85.40
11140;DHT22;5624;49.388;11.350;2024-02-28T15:12:26;6.70;86.50
11140;DHT22;5624;49.388;11.350;2024-02-28T15:14:52;6.50;87.20
11140;DHT22;5624;49.388;11.350;2024-02-28T15:17:19;6.40;87.60
11140;DHT22;5624;49.388;11.350;2024-02-28T15:19:45;6.40;88.20
11140;DHT22;5624;49.388;11.350;2024-02-28T15:22:10;6.30;87.30
11140;DHT22;5624;49.388;11.350;2024-02-28T15:24:36;6.30;88.10
11140;DHT22;5624;49.388;11.350;2024-02-28T15:27:03;6.30;88.40
11140;DHT22;5624;49.388;11.350;2024-02-28T15:29:29;6.20;87.60
11140;DHT22;5624;49.388;11.350;2024-02-28T15:31:54;6.30;86.60
11140;DHT22;5624;49.388;11.350;2024-02-28T15:34:20;6.20;87.70
11140;DHT22;5624;49.388;11.350;2024-02-28T15:36:45;6.20;87.60